Fort Worth Nas Jrb,Carswell field Fort Worth US
ICAO: KNFW
IATA: NFW
Category: Medium
Scheduled Services: No

Elevation: 650 ft
TransAlt. 18000 ft.

Airport Communications:
RGNL APP/DEP:125.8
NAVY FORT WORTH ARR:128.775
ATIS:27.357
NAVY FORT WORTH GND:126.4
LOCKHEED:28.41
BASE OPS:29.177
PMSV METRO:34.255
NAVY FORT WORTH TWR:120.95

KNFW Zoom In..

If you have problems with the map follow the link
https://www.worldairports.se/pages/airport.php?
ICAO=KNFW

Runways:

(A) RW 17 length 12000 ft width 200 ft
ILS 108.70 / hdg 174

(B) RW 35 length 12000 ft width 200 ft
ILS 109.30 / hdg 354

Location; KNFW
Day. 21 / Time. 07.52 Zulu
* Altimeter: 30.32
* Temperature: 12° c. 53.6°f.
* Wind from: 330° Speed 06 kn.
Dewpoint: 09° c.
Visibility: 10 Statute Miles.
Clouds: Clear (automated report).

KNFW 210752Z AUTO 33006KT 10SM CLR 12/09 A3032 RMK AO2 SLP250 T01170094 TSNO $


Wind From 330°
Speed 06 kn.

 
 
jpsmedia.com for Web Design worldairports.se 2018   terms of use